sensor_id;sensor_type;location;lat;lon;timestamp;pressure;altitude;pressure_sealevel;temperature;humidity
27958;BME280;15295;42.658;23.374;2023-04-24T00:00:30;94355.38;;;16.95;38.80
27958;BME280;15295;42.658;23.374;2023-04-24T00:02:56;94328.13;;;16.84;38.90
27958;BME280;15295;42.658;23.374;2023-04-24T00:05:23;94351.06;;;17.07;38.58
27958;BME280;15295;42.658;23.374;2023-04-24T00:07:49;94312.13;;;16.79;38.66
27958;BME280;15295;42.658;23.374;2023-04-24T00:10:18;94309.69;;;16.69;39.12
27958;BME280;15295;42.658;23.374;2023-04-24T00:12:43;94345.78;;;16.87;39.15
27958;BME280;15295;42.658;23.374;2023-04-24T00:15:09;94352.53;;;16.86;38.76
27958;BME280;15295;42.658;23.374;2023-04-24T00:17:35;94290.84;;;16.67;39.37
27958;BME280;15295;42.658;23.374;2023-04-24T00:20:01;94331.41;;;16.92;39.58
27958;BME280;15295;42.658;23.374;2023-04-24T00:22:35;94330.44;;;16.86;39.29
27958;BME280;15295;42.658;23.374;2023-04-24T00:25:00;94327.13;;;16.91;39.14
27958;BME280;15295;42.658;23.374;2023-04-24T00:27:28;94313.88;;;16.86;39.08
27958;BME280;15295;42.658;23.374;2023-04-24T00:29:54;94323.78;;;16.96;38.84
27958;BME280;15295;42.658;23.374;2023-04-24T00:32:19;94301.22;;;16.63;39.09
27958;BME280;15295;42.658;23.374;2023-04-24T00:34:45;94331.09;;;16.90;38.92
27958;BME280;15295;42.658;23.374;2023-04-24T00:37:14;94301.53;;;16.65;38.77
27958;BME280;15295;42.658;23.374;2023-04-24T00:39:44;94300.13;;;16.61;38.78
27958;BME280;15295;42.658;23.374;2023-04-24T00:42:10;94325.06;;;16.70;39.24
27958;BME280;15295;42.658;23.374;2023-04-24T00:44:36;94314.34;;;16.59;39.26
27958;BME280;15295;42.658;23.374;2023-04-24T00:47:01;94320.28;;;16.70;39.12
27958;BME280;15295;42.658;23.374;2023-04-24T00:49:27;94290.06;;;16.54;39.04
27958;BME280;15295;42.658;23.374;2023-04-24T00:51:53;94291.84;;;16.61;38.97
27958;BME280;15295;42.658;23.374;2023-04-24T00:54:19;94297.69;;;16.63;39.26
27958;BME280;15295;42.658;23.374;2023-04-24T00:56:45;94304.84;;;16.73;39.04
27958;BME280;15295;42.658;23.374;2023-04-24T00:59:16;94324.69;;;16.93;39.18
27958;BME280;15295;42.658;23.374;2023-04-24T01:01:42;94327.00;;;16.94;39.36
27958;BME280;15295;42.658;23.374;2023-04-24T01:04:11;94333.06;;;16.89;39.55
27958;BME280;15295;42.658;23.374;2023-04-24T01:06:38;94312.91;;;16.67;39.48
27958;BME280;15295;42.658;23.374;2023-04-24T01:09:05;94280.13;;;16.44;39.86
27958;BME280;15295;42.658;23.374;2023-04-24T01:11:33;94326.81;;;16.76;39.69
27958;BME280;15295;42.658;23.374;2023-04-24T01:13:59;94296.03;;;16.53;39.92
27958;BME280;15295;42.658;23.374;2023-04-24T01:16:25;94324.38;;;16.78;39.73
27958;BME280;15295;42.658;23.374;2023-04-24T01:18:58;94317.97;;;16.81;39.74
27958;BME280;15295;42.658;23.374;2023-04-24T01:21:23;94292.63;;;16.61;39.62
27958;BME280;15295;42.658;23.374;2023-04-24T01:23:53;94319.53;;;16.82;40.04
27958;BME280;15295;42.658;23.374;2023-04-24T01:26:18;94278.25;;;16.66;40.22
27958;BME280;15295;42.658;23.374;2023-04-24T01:28:46;94298.75;;;16.90;40.22
27958;BME280;15295;42.658;23.374;2023-04-24T01:31:12;94304.94;;;16.94;40.42
27958;BME280;15295;42.658;23.374;2023-04-24T01:33:37;94288.50;;;16.91;40.33
27958;BME280;15295;42.658;23.374;2023-04-24T01:36:03;94269.41;;;16.71;40.46
27958;BME280;15295;42.658;23.374;2023-04-24T01:38:28;94265.69;;;16.65;40.51
27958;BME280;15295;42.658;23.374;2023-04-24T01:40:54;94289.59;;;16.68;40.54
27958;BME280;15295;42.658;23.374;2023-04-24T01:43:20;94269.63;;;16.64;40.74
27958;BME280;15295;42.658;23.374;2023-04-24T01:45:45;94245.59;;;16.52;40.70
27958;BME280;15295;42.658;23.374;2023-04-24T01:48:12;94256.06;;;16.70;40.76
27958;BME280;15295;42.658;23.374;2023-04-24T01:50:38;94282.88;;;16.82;40.61
27958;BME280;15295;42.658;23.374;2023-04-24T01:53:03;94284.66;;;16.76;40.61
27958;BME280;15295;42.658;23.374;2023-04-24T01:55:29;94285.63;;;16.82;40.58
27958;BME280;15295;42.658;23.374;2023-04-24T01:57:55;94284.06;;;16.81;40.68
27958;BME280;15295;42.658;23.374;2023-04-24T02:00:22;94229.56;;;16.47;40.77
27958;BME280;15295;42.658;23.374;2023-04-24T02:02:47;94248.03;;;16.63;40.87
27958;BME280;15295;42.658;23.374;2023-04-24T02:05:13;94250.13;;;16.59;40.84
27958;BME280;15295;42.658;23.374;2023-04-24T02:07:38;94240.09;;;16.52;40.83
27958;BME280;15295;42.658;23.374;2023-04-24T02:10:05;94236.09;;;16.41;41.04
27958;BME280;15295;42.658;23.374;2023-04-24T02:12:31;94230.56;;;16.41;41.36
27958;BME280;15295;42.658;23.374;2023-04-24T02:14:58;94255.63;;;16.46;41.31
27958;BME280;15295;42.658;23.374;2023-04-24T02:17:24;94242.28;;;16.32;41.52
27958;BME280;15295;42.658;23.374;2023-04-24T02:19:50;94261.81;;;16.38;41.45
27958;BME280;15295;42.658;23.374;2023-04-24T02:22:19;94272.06;;;16.37;41.95
27958;BME280;15295;42.658;23.374;2023-04-24T02:24:44;94242.72;;;16.05;42.17
27958;BME280;15295;42.658;23.374;2023-04-24T02:27:10;94238.72;;;15.94;42.16
27958;BME280;15295;42.658;23.374;2023-04-24T02:29:36;94262.88;;;16.02;42.51
27958;BME280;15295;42.658;23.374;2023-04-24T02:32:02;94284.72;;;16.09;42.79
27958;BME280;15295;42.658;23.374;2023-04-24T02:34:28;94268.84;;;16.01;42.59
27958;BME280;15295;42.658;23.374;2023-04-24T02:36:54;94234.50;;;15.77;42.89
27958;BME280;15295;42.658;23.374;2023-04-24T02:39:19;94246.13;;;15.84;42.58
27958;BME280;15295;42.658;23.374;2023-04-24T02:41:45;94261.09;;;15.96;42.63
27958;BME280;15295;42.658;23.374;2023-04-24T02:44:10;94250.88;;;15.96;42.68
27958;BME280;15295;42.658;23.374;2023-04-24T02:46:36;94231.78;;;15.89;42.37
27958;BME280;15295;42.658;23.374;2023-04-24T02:49:01;94225.72;;;15.82;42.44
27958;BME280;15295;42.658;23.374;2023-04-24T02:51:27;94226.38;;;15.86;42.42
27958;BME280;15295;42.658;23.374;2023-04-24T02:53:53;94226.38;;;15.86;42.44
27958;BME280;15295;42.658;23.374;2023-04-24T02:56:18;94243.91;;;16.04;42.31
27958;BME280;15295;42.658;23.374;2023-04-24T02:58:44;94237.19;;;15.93;42.25
27958;BME280;15295;42.658;23.374;2023-04-24T03:01:10;94240.63;;;15.97;42.38
27958;BME280;15295;42.658;23.374;2023-04-24T03:03:39;94249.31;;;15.95;42.44
27958;BME280;15295;42.658;23.374;2023-04-24T03:06:06;94227.47;;;15.76;42.49
27958;BME280;15295;42.658;23.374;2023-04-24T03:08:33;94230.44;;;15.81;42.62
27958;BME280;15295;42.658;23.374;2023-04-24T03:10:59;94228.56;;;15.78;42.63
27958;BME280;15295;42.658;23.374;2023-04-24T03:13:24;94234.75;;;15.82;42.88
27958;BME280;15295;42.658;23.374;2023-04-24T03:15:49;94240.56;;;15.72;43.17
27958;BME280;15295;42.658;23.374;2023-04-24T03:18:17;94270.69;;;15.91;43.09
27958;BME280;15295;42.658;23.374;2023-04-24T03:20:42;94250.94;;;15.80;43.28
27958;BME280;15295;42.658;23.374;2023-04-24T03:23:09;94250.03;;;15.71;43.42
27958;BME280;15295;42.658;23.374;2023-04-24T03:25:34;94243.72;;;15.58;43.53
27958;BME280;15295;42.658;23.374;2023-04-24T03:28:00;94270.13;;;15.71;43.73
27958;BME280;15295;42.658;23.374;2023-04-24T03:30:25;94235.34;;;15.49;43.58
27958;BME280;15295;42.658;23.374;2023-04-24T03:32:50;94264.34;;;15.66;43.86
27958;BME280;15295;42.658;23.374;2023-04-24T03:35:16;94240.84;;;15.49;43.95
27958;BME280;15295;42.658;23.374;2023-04-24T03:37:42;94242.50;;;15.46;43.90
27958;BME280;15295;42.658;23.374;2023-04-24T03:40:10;94232.69;;;15.45;44.20
27958;BME280;15295;42.658;23.374;2023-04-24T03:42:35;94234.75;;;15.41;44.27
27958;BME280;15295;42.658;23.374;2023-04-24T03:45:02;94251.44;;;15.50;44.56
27958;BME280;15295;42.658;23.374;2023-04-24T03:47:27;94238.75;;;15.53;44.62
27958;BME280;15295;42.658;23.374;2023-04-24T03:49:52;94257.50;;;15.58;44.50
27958;BME280;15295;42.658;23.374;2023-04-24T03:52:19;94269.56;;;15.76;44.86
27958;BME280;15295;42.658;23.374;2023-04-24T03:54:44;94240.78;;;15.65;44.65
27958;BME280;15295;42.658;23.374;2023-04-24T03:57:10;94245.84;;;15.66;44.51
27958;BME280;15295;42.658;23.374;2023-04-24T03:59:36;94257.00;;;15.75;44.51
27958;BME280;15295;42.658;23.374;2023-04-24T04:02:03;94269.50;;;15.92;44.33
27958;BME280;15295;42.658;23.374;2023-04-24T04:04:28;94242.66;;;15.68;44.42
27958;BME280;15295;42.658;23.374;2023-04-24T04:06:53;94234.72;;;15.70;44.13
27958;BME280;15295;42.658;23.374;2023-04-24T04:09:19;94223.59;;;15.73;43.90
27958;BME280;15295;42.658;23.374;2023-04-24T04:11:48;94245.34;;;15.84;43.75
27958;BME280;15295;42.658;23.374;2023-04-24T04:14:16;94268.72;;;15.92;43.88
27958;BME280;15295;42.658;23.374;2023-04-24T04:16:44;94231.88;;;15.86;43.81
27958;BME280;15295;42.658;23.374;2023-04-24T04:19:17;94250.09;;;15.96;43.70
27958;BME280;15295;42.658;23.374;2023-04-24T04:21:43;94247.13;;;16.03;43.71
27958;BME280;15295;42.658;23.374;2023-04-24T04:24:13;94274.69;;;16.28;43.63
27958;BME280;15295;42.658;23.374;2023-04-24T04:26:39;94264.56;;;16.25;43.46
27958;BME280;15295;42.658;23.374;2023-04-24T04:29:05;94274.38;;;16.39;43.45
27958;BME280;15295;42.658;23.374;2023-04-24T04:31:31;94260.47;;;16.30;42.57
27958;BME280;15295;42.658;23.374;2023-04-24T04:33:57;94277.56;;;16.37;42.42
27958;BME280;15295;42.658;23.374;2023-04-24T04:36:22;94265.00;;;16.36;41.28
27958;BME280;15295;42.658;23.374;2023-04-24T04:38:49;94273.69;;;16.47;40.68
27958;BME280;15295;42.658;23.374;2023-04-24T04:41:14;94280.22;;;16.53;41.03
27958;BME280;15295;42.658;23.374;2023-04-24T04:43:42;94290.19;;;16.63;41.13
27958;BME280;15295;42.658;23.374;2023-04-24T04:46:07;94287.31;;;16.67;41.80
27958;BME280;15295;42.658;23.374;2023-04-24T04:48:33;94292.69;;;16.70;41.99
27958;BME280;15295;42.658;23.374;2023-04-24T04:50:59;94298.78;;;16.65;42.12
27958;BME280;15295;42.658;23.374;2023-04-24T04:53:24;94307.16;;;16.62;41.95
27958;BME280;15295;42.658;23.374;2023-04-24T04:55:51;94285.44;;;16.51;41.71
27958;BME280;15295;42.658;23.374;2023-04-24T04:58:16;94307.41;;;16.67;41.19
27958;BME280;15295;42.658;23.374;2023-04-24T05:00:41;94297.22;;;16.64;41.38
27958;BME280;15295;42.658;23.374;2023-04-24T05:03:07;94310.38;;;16.60;41.14
27958;BME280;15295;42.658;23.374;2023-04-24T05:05:33;94304.72;;;16.51;40.90
27958;BME280;15295;42.658;23.374;2023-04-24T05:07:58;94305.59;;;16.48;41.19
27958;BME280;15295;42.658;23.374;2023-04-24T05:10:23;94297.69;;;16.50;40.92
27958;BME280;15295;42.658;23.374;2023-04-24T05:12:49;94309.16;;;16.61;40.53
27958;BME280;15295;42.658;23.374;2023-04-24T05:15:15;94293.59;;;16.55;40.49
27958;BME280;15295;42.658;23.374;2023-04-24T05:17:40;94315.22;;;16.69;40.21
27958;BME280;15295;42.658;23.374;2023-04-24T05:20:06;94315.66;;;16.67;40.54
27958;BME280;15295;42.658;23.374;2023-04-24T05:22:32;94312.00;;;16.70;40.46
27958;BME280;15295;42.658;23.374;2023-04-24T05:24:58;94310.13;;;16.80;40.20
27958;BME280;15295;42.658;23.374;2023-04-24T05:27:24;94310.66;;;16.87;40.02
27958;BME280;15295;42.658;23.374;2023-04-24T05:29:50;94294.22;;;16.84;40.08
27958;BME280;15295;42.658;23.374;2023-04-24T05:32:16;94305.91;;;17.01;39.78
27958;BME280;15295;42.658;23.374;2023-04-24T05:34:42;94303.38;;;17.06;39.73
27958;BME280;15295;42.658;23.374;2023-04-24T05:37:07;94298.28;;;17.05;39.66
27958;BME280;15295;42.658;23.374;2023-04-24T05:39:33;94299.06;;;17.05;39.51
27958;BME280;15295;42.658;23.374;2023-04-24T05:41:59;94310.09;;;17.05;39.57
27958;BME280;15295;42.658;23.374;2023-04-24T05:44:26;94299.50;;;17.04;39.58
27958;BME280;15295;42.658;23.374;2023-04-24T05:46:51;94300.03;;;17.11;39.66
27958;BME280;15295;42.658;23.374;2023-04-24T05:49:17;94310.28;;;17.23;39.68
27958;BME280;15295;42.658;23.374;2023-04-24T05:51:42;94313.66;;;17.40;39.11
27958;BME280;15295;42.658;23.374;2023-04-24T05:54:08;94303.72;;;17.42;39.20
27958;BME280;15295;42.658;23.374;2023-04-24T05:56:33;94310.88;;;17.52;39.02
27958;BME280;15295;42.658;23.374;2023-04-24T05:58:59;94304.47;;;17.55;39.12
27958;BME280;15295;42.658;23.374;2023-04-24T06:01:24;94316.91;;;17.60;39.13
27958;BME280;15295;42.658;23.374;2023-04-24T06:03:50;94317.94;;;17.75;38.89
27958;BME280;15295;42.658;23.374;2023-04-24T06:06:16;94302.84;;;17.89;41.93
27958;BME280;15295;42.658;23.374;2023-04-24T06:08:42;94292.59;;;18.20;42.53
27958;BME280;15295;42.658;23.374;2023-04-24T06:11:09;94312.38;;;18.40;40.94
27958;BME280;15295;42.658;23.374;2023-04-24T06:13:35;94311.84;;;18.54;40.00
27958;BME280;15295;42.658;23.374;2023-04-24T06:16:00;94318.47;;;18.57;38.26
27958;BME280;15295;42.658;23.374;2023-04-24T06:18:25;94297.44;;;18.59;37.90
27958;BME280;15295;42.658;23.374;2023-04-24T06:20:51;94304.31;;;18.55;37.71
27958;BME280;15295;42.658;23.374;2023-04-24T06:23:17;94314.63;;;18.54;38.08
27958;BME280;15295;42.658;23.374;2023-04-24T06:25:42;94309.91;;;18.64;37.98
27958;BME280;15295;42.658;23.374;2023-04-24T06:28:08;94309.38;;;18.87;37.41
27958;BME280;15295;42.658;23.374;2023-04-24T06:30:36;94312.22;;;19.05;37.05
27958;BME280;15295;42.658;23.374;2023-04-24T06:33:01;94311.38;;;19.35;36.51
27958;BME280;15295;42.658;23.374;2023-04-24T06:35:26;94303.53;;;19.52;36.15
27958;BME280;15295;42.658;23.374;2023-04-24T06:37:53;94307.38;;;19.72;35.85
27958;BME280;15295;42.658;23.374;2023-04-24T06:40:18;94301.84;;;19.81;35.60
27958;BME280;15295;42.658;23.374;2023-04-24T06:42:44;94310.59;;;19.98;35.36
27958;BME280;15295;42.658;23.374;2023-04-24T06:45:09;94315.06;;;20.05;35.40
27958;BME280;15295;42.658;23.374;2023-04-24T06:47:35;94322.75;;;20.28;35.18
27958;BME280;15295;42.658;23.374;2023-04-24T06:50:01;94313.22;;;20.38;34.95
27958;BME280;15295;42.658;23.374;2023-04-24T06:52:26;94324.84;;;20.60;34.40
27958;BME280;15295;42.658;23.374;2023-04-24T06:54:52;94325.00;;;20.65;34.54
27958;BME280;15295;42.658;23.374;2023-04-24T06:57:19;94318.97;;;20.67;34.56
27958;BME280;15295;42.658;23.374;2023-04-24T06:59:44;94326.47;;;20.85;34.70
27958;BME280;15295;42.658;23.374;2023-04-24T07:02:10;94307.72;;;20.94;34.09
27958;BME280;15295;42.658;23.374;2023-04-24T07:04:35;94312.38;;;20.97;34.15
27958;BME280;15295;42.658;23.374;2023-04-24T07:07:02;94300.56;;;21.11;33.72
27958;BME280;15295;42.658;23.374;2023-04-24T07:09:27;94310.91;;;21.11;33.65
27958;BME280;15295;42.658;23.374;2023-04-24T07:11:53;94290.72;;;21.01;33.58
27958;BME280;15295;42.658;23.374;2023-04-24T07:14:19;94302.47;;;21.05;33.93
27958;BME280;15295;42.658;23.374;2023-04-24T07:16:45;94297.75;;;21.20;33.64
27958;BME280;15295;42.658;23.374;2023-04-24T07:19:10;94306.88;;;21.44;33.52
27958;BME280;15295;42.658;23.374;2023-04-24T07:21:36;94307.28;;;21.52;32.96
27958;BME280;15295;42.658;23.374;2023-04-24T07:24:01;94299.41;;;21.50;33.23
27958;BME280;15295;42.658;23.374;2023-04-24T07:26:30;94298.44;;;21.53;33.19
27958;BME280;15295;42.658;23.374;2023-04-24T07:28:56;94292.41;;;21.79;33.11
27958;BME280;15295;42.658;23.374;2023-04-24T07:31:23;94287.84;;;22.05;32.59
27958;BME280;15295;42.658;23.374;2023-04-24T07:33:48;94294.22;;;22.20;32.38
27958;BME280;15295;42.658;23.374;2023-04-24T07:36:15;94286.47;;;22.39;32.35
27958;BME280;15295;42.658;23.374;2023-04-24T07:38:47;94279.66;;;22.69;31.89
27958;BME280;15295;42.658;23.374;2023-04-24T07:41:13;94279.34;;;22.81;31.41
27958;BME280;15295;42.658;23.374;2023-04-24T07:43:40;94284.63;;;22.79;31.34
27958;BME280;15295;42.658;23.374;2023-04-24T07:46:06;94290.06;;;23.03;31.17
27958;BME280;15295;42.658;23.374;2023-04-24T07:48:32;94286.41;;;23.32;30.87
27958;BME280;15295;42.658;23.374;2023-04-24T07:50:58;94283.66;;;23.52;30.50
27958;BME280;15295;42.658;23.374;2023-04-24T07:53:24;94283.38;;;23.70;29.89
27958;BME280;15295;42.658;23.374;2023-04-24T07:55:50;94281.00;;;23.83;29.52
27958;BME280;15295;42.658;23.374;2023-04-24T07:58:15;94270.50;;;23.98;29.48
27958;BME280;15295;42.658;23.374;2023-04-24T08:00:43;94268.78;;;24.26;28.91
27958;BME280;15295;42.658;23.374;2023-04-24T08:03:08;94280.19;;;24.48;28.70
27958;BME280;15295;42.658;23.374;2023-04-24T08:05:36;94275.78;;;24.68;28.34
27958;BME280;15295;42.658;23.374;2023-04-24T08:08:02;94256.47;;;24.38;28.32
27958;BME280;15295;42.658;23.374;2023-04-24T08:10:28;94252.41;;;24.39;28.58
27958;BME280;15295;42.658;23.374;2023-04-24T08:12:53;94274.13;;;24.56;28.46
27958;BME280;15295;42.658;23.374;2023-04-24T08:15:27;94270.38;;;24.59;28.69
27958;BME280;15295;42.658;23.374;2023-04-24T08:17:54;94273.16;;;24.84;28.26
27958;BME280;15295;42.658;23.374;2023-04-24T08:20:20;94266.81;;;24.89;28.28
27958;BME280;15295;42.658;23.374;2023-04-24T08:22:46;94260.50;;;24.94;28.49
27958;BME280;15295;42.658;23.374;2023-04-24T08:25:18;94262.19;;;25.17;27.99
27958;BME280;15295;42.658;23.374;2023-04-24T08:27:44;94262.25;;;25.28;27.89
27958;BME280;15295;42.658;23.374;2023-04-24T08:30:10;94257.19;;;25.33;27.36
27958;BME280;15295;42.658;23.374;2023-04-24T08:32:36;94243.25;;;25.38;27.76
27958;BME280;15295;42.658;23.374;2023-04-24T08:35:02;94251.22;;;25.56;27.41
27958;BME280;15295;42.658;23.374;2023-04-24T08:37:28;94247.69;;;25.61;27.69
27958;BME280;15295;42.658;23.374;2023-04-24T08:39:54;94252.56;;;25.72;27.60
27958;BME280;15295;42.658;23.374;2023-04-24T08:42:20;94254.84;;;25.73;26.97
27958;BME280;15295;42.658;23.374;2023-04-24T08:44:46;94241.38;;;25.77;27.07
27958;BME280;15295;42.658;23.374;2023-04-24T08:47:14;94236.28;;;25.76;27.78
27958;BME280;15295;42.658;23.374;2023-04-24T08:49:40;94238.16;;;26.01;27.48
27958;BME280;15295;42.658;23.374;2023-04-24T08:52:05;94237.38;;;26.00;27.02
27958;BME280;15295;42.658;23.374;2023-04-24T08:54:33;94232.88;;;26.14;27.09
27958;BME280;15295;42.658;23.374;2023-04-24T08:57:02;94233.16;;;26.22;26.86
27958;BME280;15295;42.658;23.374;2023-04-24T08:59:29;94233.91;;;26.50;26.41
27958;BME280;15295;42.658;23.374;2023-04-24T09:01:55;94226.81;;;26.60;26.01
27958;BME280;15295;42.658;23.374;2023-04-24T09:04:22;94226.31;;;26.78;26.15
27958;BME280;15295;42.658;23.374;2023-04-24T09:06:51;94214.31;;;26.72;26.09
27958;BME280;15295;42.658;23.374;2023-04-24T09:09:17;94218.16;;;26.74;26.06
27958;BME280;15295;42.658;23.374;2023-04-24T09:11:49;94214.34;;;26.83;26.00
27958;BME280;15295;42.658;23.374;2023-04-24T09:14:15;94201.81;;;26.95;25.61
27958;BME280;15295;42.658;23.374;2023-04-24T09:16:41;94212.00;;;27.09;25.19
27958;BME280;15295;42.658;23.374;2023-04-24T09:19:07;94208.44;;;27.03;25.31
27958;BME280;15295;42.658;23.374;2023-04-24T09:21:34;94200.81;;;26.98;25.44
27958;BME280;15295;42.658;23.374;2023-04-24T09:24:03;94202.56;;;27.12;25.35
27958;BME280;15295;42.658;23.374;2023-04-24T09:26:31;94189.75;;;27.28;25.54
27958;BME280;15295;42.658;23.374;2023-04-24T09:28:59;94181.38;;;27.17;25.57
27958;BME280;15295;42.658;23.374;2023-04-24T09:31:27;94192.88;;;27.13;25.69
27958;BME280;15295;42.658;23.374;2023-04-24T09:33:58;94147.03;;;26.72;26.16
27958;BME280;15295;42.658;23.374;2023-04-24T09:36:43;94186.50;;;27.13;25.58
27958;BME280;15295;42.658;23.374;2023-04-24T09:39:15;94174.50;;;27.18;25.82
27958;BME280;15295;42.658;23.374;2023-04-24T09:44:13;94177.50;;;27.42;25.17
27958;BME280;15295;42.658;23.374;2023-04-24T09:46:41;94172.13;;;27.49;24.71
27958;BME280;15295;42.658;23.374;2023-04-24T09:49:27;94176.69;;;27.52;24.47
27958;BME280;15295;42.658;23.374;2023-04-24T09:52:11;94178.47;;;27.56;24.78
27958;BME280;15295;42.658;23.374;2023-04-24T09:54:38;94175.84;;;27.69;24.29
27958;BME280;15295;42.658;23.374;2023-04-24T09:57:03;94166.03;;;27.92;24.18
27958;BME280;15295;42.658;23.374;2023-04-24T09:59:29;94163.69;;;27.96;24.28
27958;BME280;15295;42.658;23.374;2023-04-24T10:01:55;94165.69;;;28.12;24.18
27958;BME280;15295;42.658;23.374;2023-04-24T10:04:23;94169.53;;;28.09;24.01
27958;BME280;15295;42.658;23.374;2023-04-24T10:06:51;94142.44;;;28.06;23.92
27958;BME280;15295;42.658;23.374;2023-04-24T10:09:18;94151.13;;;28.08;24.23
27958;BME280;15295;42.658;23.374;2023-04-24T10:11:46;94157.38;;;28.25;24.06
27958;BME280;15295;42.658;23.374;2023-04-24T10:14:21;94161.13;;;28.39;23.87
27958;BME280;15295;42.658;23.374;2023-04-24T10:16:48;94148.44;;;28.27;24.21
27958;BME280;15295;42.658;23.374;2023-04-24T10:19:15;94143.69;;;28.46;23.97
27958;BME280;15295;42.658;23.374;2023-04-24T10:21:42;94127.31;;;28.50;23.53
27958;BME280;15295;42.658;23.374;2023-04-24T10:24:17;94128.56;;;28.49;23.86
27958;BME280;15295;42.658;23.374;2023-04-24T10:26:46;94118.63;;;28.48;23.81
27958;BME280;15295;42.658;23.374;2023-04-24T10:29:14;94128.16;;;28.39;23.66
27958;BME280;15295;42.658;23.374;2023-04-24T10:31:40;94119.59;;;28.26;24.06
27958;BME280;15295;42.658;23.374;2023-04-24T10:34:07;94118.16;;;28.44;23.91
27958;BME280;15295;42.658;23.374;2023-04-24T10:36:34;94113.41;;;28.33;24.18
27958;BME280;15295;42.658;23.374;2023-04-24T10:39:02;94123.00;;;28.43;23.43
27958;BME280;15295;42.658;23.374;2023-04-24T10:41:30;94127.00;;;28.23;22.90
27958;BME280;15295;42.658;23.374;2023-04-24T10:44:09;94109.53;;;28.36;22.92
27958;BME280;15295;42.658;23.374;2023-04-24T10:46:36;94108.25;;;28.37;22.62
27958;BME280;15295;42.658;23.374;2023-04-24T10:49:05;94107.56;;;28.55;22.64
27958;BME280;15295;42.658;23.374;2023-04-24T10:51:49;94100.72;;;28.51;22.39
27958;BME280;15295;42.658;23.374;2023-04-24T10:54:34;94098.66;;;28.51;22.54
27958;BME280;15295;42.658;23.374;2023-04-24T11:02:36;94083.19;;;28.69;21.51
27958;BME280;15295;42.658;23.374;2023-04-24T11:05:06;94074.34;;;28.83;21.72
27958;BME280;15295;42.658;23.374;2023-04-24T11:08:14;94085.25;;;28.92;21.60
27958;BME280;15295;42.658;23.374;2023-04-24T11:10:44;94080.50;;;28.82;22.12
27958;BME280;15295;42.658;23.374;2023-04-24T11:13:10;94074.44;;;28.72;22.10
27958;BME280;15295;42.658;23.374;2023-04-24T11:15:41;94070.00;;;28.82;21.69
27958;BME280;15295;42.658;23.374;2023-04-24T11:18:07;94063.66;;;28.76;21.57
27958;BME280;15295;42.658;23.374;2023-04-24T11:20:32;94066.78;;;28.73;21.27
27958;BME280;15295;42.658;23.374;2023-04-24T11:23:03;94071.72;;;28.37;21.61
27958;BME280;15295;42.658;23.374;2023-04-24T11:25:30;94071.34;;;28.22;21.77
27958;BME280;15295;42.658;23.374;2023-04-24T11:28:04;94077.28;;;28.13;22.36
27958;BME280;15295;42.658;23.374;2023-04-24T11:30:32;94097.84;;;27.97;22.12
27958;BME280;15295;42.658;23.374;2023-04-24T11:33:03;94093.28;;;27.47;23.59
27958;BME280;15295;42.658;23.374;2023-04-24T11:35:29;94100.06;;;27.06;24.67
27958;BME280;15295;42.658;23.374;2023-04-24T11:37:57;94090.75;;;26.59;26.54
27958;BME280;15295;42.658;23.374;2023-04-24T11:40:26;94102.00;;;26.15;27.25
27958;BME280;15295;42.658;23.374;2023-04-24T11:42:52;94118.47;;;25.57;27.34
27958;BME280;15295;42.658;23.374;2023-04-24T11:45:24;94112.78;;;25.41;27.00
27958;BME280;15295;42.658;23.374;2023-04-24T11:47:51;94096.66;;;25.08;26.64
27958;BME280;15295;42.658;23.374;2023-04-24T11:50:18;94116.13;;;24.86;27.00
27958;BME280;15295;42.658;23.374;2023-04-24T11:52:46;94113.13;;;24.52;28.69
27958;BME280;15295;42.658;23.374;2023-04-24T11:57:48;94110.91;;;23.68;32.43
27958;BME280;15295;42.658;23.374;2023-04-24T12:00:17;94098.78;;;23.77;32.51
27958;BME280;15295;42.658;23.374;2023-04-24T12:02:43;94082.66;;;23.35;31.19
27958;BME280;15295;42.658;23.374;2023-04-24T12:05:09;94087.53;;;23.40;30.17
27958;BME280;15295;42.658;23.374;2023-04-24T12:07:43;94088.44;;;23.32;30.26
27958;BME280;15295;42.658;23.374;2023-04-24T12:10:09;94101.31;;;23.49;29.41
27958;BME280;15295;42.658;23.374;2023-04-24T12:12:35;94083.34;;;23.30;30.01
27958;BME280;15295;42.658;23.374;2023-04-24T12:15:01;94071.97;;;23.54;30.17
27958;BME280;15295;42.658;23.374;2023-04-24T12:17:29;94046.50;;;23.72;29.72
27958;BME280;15295;42.658;23.374;2023-04-24T12:20:04;94058.44;;;23.72;29.10
27958;BME280;15295;42.658;23.374;2023-04-24T12:22:44;94067.72;;;23.64;30.07
27958;BME280;15295;42.658;23.374;2023-04-24T12:25:13;94068.28;;;23.68;30.98
27958;BME280;15295;42.658;23.374;2023-04-24T12:27:38;94078.28;;;23.80;31.35
27958;BME280;15295;42.658;23.374;2023-04-24T12:30:05;94054.88;;;24.03;30.56
27958;BME280;15295;42.658;23.374;2023-04-24T12:32:31;94062.81;;;24.10;30.68
27958;BME280;15295;42.658;23.374;2023-04-24T12:34:57;94058.56;;;23.89;30.42
27958;BME280;15295;42.658;23.374;2023-04-24T12:37:24;94051.28;;;23.40;30.79
27958;BME280;15295;42.658;23.374;2023-04-24T12:40:08;94062.53;;;23.06;31.56
27958;BME280;15295;42.658;23.374;2023-04-24T12:42:35;94027.88;;;22.86;31.41
27958;BME280;15295;42.658;23.374;2023-04-24T12:45:03;94024.81;;;22.84;32.05
27958;BME280;15295;42.658;23.374;2023-04-24T12:47:30;94016.06;;;22.71;32.39
27958;BME280;15295;42.658;23.374;2023-04-24T12:49:56;93995.72;;;22.85;32.12
27958;BME280;15295;42.658;23.374;2023-04-24T12:52:26;94011.75;;;22.70;31.33
27958;BME280;15295;42.658;23.374;2023-04-24T12:54:56;94007.97;;;22.73;31.82
27958;BME280;15295;42.658;23.374;2023-04-24T12:57:23;94009.78;;;22.96;31.20
27958;BME280;15295;42.658;23.374;2023-04-24T12:59:48;93995.59;;;22.74;31.64